sensor_id;sensor_type;location;lat;lon;timestamp;pressure;altitude;pressure_sealevel;temperature;humidity
34034;BME280;63481;52.588;22.472;2023-07-13T00:00:05;99690.21;;;18.49;98.36
34034;BME280;63481;52.588;22.472;2023-07-13T00:01:01;99691.82;;;18.42;98.44
34034;BME280;63481;52.588;22.472;2023-07-13T00:01:45;99687.17;;;18.40;98.78
34034;BME280;63481;52.588;22.472;2023-07-13T00:02:20;99686.63;;;18.43;98.87
34034;BME280;63481;52.588;22.472;2023-07-13T00:02:52;99686.05;;;18.38;98.85
34034;BME280;63481;52.588;22.472;2023-07-13T00:03:27;99681.23;;;18.34;98.80
34034;BME280;63481;52.588;22.472;2023-07-13T00:03:59;99677.30;;;18.34;99.00
34034;BME280;63481;52.588;22.472;2023-07-13T00:04:32;99678.53;;;18.33;99.11
34034;BME280;63481;52.588;22.472;2023-07-13T00:05:04;99680.69;;;18.36;99.23
34034;BME280;63481;52.588;22.472;2023-07-13T00:05:36;99679.02;;;18.36;99.14
34034;BME280;63481;52.588;22.472;2023-07-13T00:06:08;99674.55;;;18.33;99.16
34034;BME280;63481;52.588;22.472;2023-07-13T00:06:40;99676.49;;;18.32;99.37
34034;BME280;63481;52.588;22.472;2023-07-13T00:07:16;99675.79;;;18.28;99.61
34034;BME280;63481;52.588;22.472;2023-07-13T00:07:51;99678.54;;;18.32;99.78
34034;BME280;63481;52.588;22.472;2023-07-13T00:08:23;99676.05;;;18.32;99.67
34034;BME280;63481;52.588;22.472;2023-07-13T00:08:55;99676.65;;;18.31;99.73
34034;BME280;63481;52.588;22.472;2023-07-13T00:09:27;99675.41;;;18.32;99.77
34034;BME280;63481;52.588;22.472;2023-07-13T00:09:59;99675.23;;;18.32;99.76
34034;BME280;63481;52.588;22.472;2023-07-13T00:10:31;99677.08;;;18.37;99.45
34034;BME280;63481;52.588;22.472;2023-07-13T00:11:03;99678.60;;;18.37;99.50
34034;BME280;63481;52.588;22.472;2023-07-13T00:11:35;99680.54;;;18.32;99.46
34034;BME280;63481;52.588;22.472;2023-07-13T00:12:23;99677.56;;;18.27;99.62
34034;BME280;63481;52.588;22.472;2023-07-13T00:12:55;99680.05;;;18.24;99.74
34034;BME280;63481;52.588;22.472;2023-07-13T00:13:29;99682.21;;;18.28;99.73
34034;BME280;63481;52.588;22.472;2023-07-13T00:14:01;99681.13;;;18.27;99.54
34034;BME280;63481;52.588;22.472;2023-07-13T00:14:33;99680.91;;;18.27;99.66
34034;BME280;63481;52.588;22.472;2023-07-13T00:15:18;99679.69;;;18.29;99.57
34034;BME280;63481;52.588;22.472;2023-07-13T00:15:55;99679.02;;;18.26;99.52
34034;BME280;63481;52.588;22.472;2023-07-13T00:16:27;99678.64;;;18.27;99.73
34034;BME280;63481;52.588;22.472;2023-07-13T00:16:59;99679.68;;;18.24;99.79
34034;BME280;63481;52.588;22.472;2023-07-13T00:17:32;99680.86;;;18.25;99.82
34034;BME280;63481;52.588;22.472;2023-07-13T00:18:04;99679.35;;;18.29;99.74
34034;BME280;63481;52.588;22.472;2023-07-13T00:18:36;99683.61;;;18.29;99.88
34034;BME280;63481;52.588;22.472;2023-07-13T00:19:10;99683.50;;;18.33;99.80
34034;BME280;63481;52.588;22.472;2023-07-13T00:19:43;99681.67;;;18.31;99.79
34034;BME280;63481;52.588;22.472;2023-07-13T00:20:15;99682.64;;;18.29;99.75
34034;BME280;63481;52.588;22.472;2023-07-13T00:20:48;99684.20;;;18.27;99.79
34034;BME280;63481;52.588;22.472;2023-07-13T00:21:20;99682.38;;;18.20;99.90
34034;BME280;63481;52.588;22.472;2023-07-13T00:21:51;99681.89;;;18.13;100.00
34034;BME280;63481;52.588;22.472;2023-07-13T00:22:27;99679.50;;;18.10;100.00
34034;BME280;63481;52.588;22.472;2023-07-13T00:22:59;99684.10;;;18.09;100.00
34034;BME280;63481;52.588;22.472;2023-07-13T00:23:35;99685.44;;;18.05;100.00
34034;BME280;63481;52.588;22.472;2023-07-13T00:24:11;99680.95;;;18.06;100.00
34034;BME280;63481;52.588;22.472;2023-07-13T00:24:47;99684.14;;;18.08;100.00
34034;BME280;63481;52.588;22.472;2023-07-13T00:25:21;99684.79;;;18.08;100.00
34034;BME280;63481;52.588;22.472;2023-07-13T00:25:53;99683.77;;;18.09;100.00
34034;BME280;63481;52.588;22.472;2023-07-13T00:26:28;99687.92;;;18.08;100.00
34034;BME280;63481;52.588;22.472;2023-07-13T00:27:00;99686.46;;;18.06;100.00
34034;BME280;63481;52.588;22.472;2023-07-13T00:27:32;99688.84;;;18.09;100.00
34034;BME280;63481;52.588;22.472;2023-07-13T00:28:04;99686.90;;;18.10;100.00
34034;BME280;63481;52.588;22.472;2023-07-13T00:28:36;99687.65;;;18.13;100.00
34034;BME280;63481;52.588;22.472;2023-07-13T00:29:08;99687.23;;;18.14;100.00
34034;BME280;63481;52.588;22.472;2023-07-13T00:29:40;99686.36;;;18.12;100.00
34034;BME280;63481;52.588;22.472;2023-07-13T00:30:12;99689.70;;;18.14;100.00
34034;BME280;63481;52.588;22.472;2023-07-13T00:30:44;99690.67;;;18.19;100.00
34034;BME280;63481;52.588;22.472;2023-07-13T00:31:18;99692.73;;;18.19;100.00
34034;BME280;63481;52.588;22.472;2023-07-13T00:31:50;99696.84;;;18.12;100.00
34034;BME280;63481;52.588;22.472;2023-07-13T00:32:22;99698.56;;;18.10;100.00
34034;BME280;63481;52.588;22.472;2023-07-13T00:32:57;99697.48;;;18.10;100.00
34034;BME280;63481;52.588;22.472;2023-07-13T00:33:29;99696.67;;;18.11;100.00
34034;BME280;63481;52.588;22.472;2023-07-13T00:34:02;99700.83;;;18.12;100.00
34034;BME280;63481;52.588;22.472;2023-07-13T00:34:35;99699.32;;;18.12;100.00
34034;BME280;63481;52.588;22.472;2023-07-13T00:35:07;99701.04;;;18.10;100.00
34034;BME280;63481;52.588;22.472;2023-07-13T00:35:40;99701.64;;;18.09;100.00
34034;BME280;63481;52.588;22.472;2023-07-13T00:36:15;99700.94;;;18.10;100.00
34034;BME280;63481;52.588;22.472;2023-07-13T00:36:47;99702.98;;;18.12;100.00
34034;BME280;63481;52.588;22.472;2023-07-13T00:37:19;99701.15;;;18.13;100.00
34034;BME280;63481;52.588;22.472;2023-07-13T00:37:51;99703.64;;;18.12;100.00
34034;BME280;63481;52.588;22.472;2023-07-13T00:38:23;99701.52;;;18.08;100.00
34034;BME280;63481;52.588;22.472;2023-07-13T00:38:56;99699.52;;;18.05;100.00
34034;BME280;63481;52.588;22.472;2023-07-13T00:39:28;99702.11;;;18.05;100.00
34034;BME280;63481;52.588;22.472;2023-07-13T00:39:59;99698.13;;;18.07;100.00
34034;BME280;63481;52.588;22.472;2023-07-13T00:40:31;99698.83;;;18.03;100.00
34034;BME280;63481;52.588;22.472;2023-07-13T00:41:04;99691.31;;;18.01;100.00
34034;BME280;63481;52.588;22.472;2023-07-13T00:41:36;99693.85;;;17.99;100.00
34034;BME280;63481;52.588;22.472;2023-07-13T00:42:09;99691.15;;;17.99;100.00
34034;BME280;63481;52.588;22.472;2023-07-13T00:42:41;99688.94;;;17.98;100.00
34034;BME280;63481;52.588;22.472;2023-07-13T00:43:16;99689.27;;;18.01;100.00
34034;BME280;63481;52.588;22.472;2023-07-13T00:43:49;99688.88;;;18.01;100.00
34034;BME280;63481;52.588;22.472;2023-07-13T00:44:20;99691.57;;;17.99;100.00
34034;BME280;63481;52.588;22.472;2023-07-13T00:46:22;99695.08;;;17.89;100.00
34034;BME280;63481;52.588;22.472;2023-07-13T00:46:54;99697.67;;;17.88;100.00
34034;BME280;63481;52.588;22.472;2023-07-13T00:47:27;99697.94;;;17.85;100.00
34034;BME280;63481;52.588;22.472;2023-07-13T00:47:59;99698.00;;;17.88;100.00
34034;BME280;63481;52.588;22.472;2023-07-13T00:48:34;99696.59;;;17.84;100.00
34034;BME280;63481;52.588;22.472;2023-07-13T00:49:16;99698.41;;;17.82;100.00
34034;BME280;63481;52.588;22.472;2023-07-13T00:49:48;99697.16;;;17.77;100.00
34034;BME280;63481;52.588;22.472;2023-07-13T00:50:21;99691.43;;;17.77;100.00
34034;BME280;63481;52.588;22.472;2023-07-13T00:50:56;99695.80;;;17.76;100.00
34034;BME280;63481;52.588;22.472;2023-07-13T00:51:34;99688.91;;;17.81;100.00
34034;BME280;63481;52.588;22.472;2023-07-13T00:52:08;99692.42;;;17.79;100.00
34034;BME280;63481;52.588;22.472;2023-07-13T00:52:44;99686.09;;;17.78;100.00
34034;BME280;63481;52.588;22.472;2023-07-13T00:53:17;99690.73;;;17.75;100.00
34034;BME280;63481;52.588;22.472;2023-07-13T00:53:52;99686.80;;;17.78;100.00
34034;BME280;63481;52.588;22.472;2023-07-13T00:54:35;99690.90;;;17.79;100.00
34034;BME280;63481;52.588;22.472;2023-07-13T00:55:09;99690.90;;;17.78;100.00
34034;BME280;63481;52.588;22.472;2023-07-13T00:55:42;99691.74;;;17.73;100.00
34034;BME280;63481;52.588;22.472;2023-07-13T00:56:14;99693.30;;;17.72;100.00
34034;BME280;63481;52.588;22.472;2023-07-13T00:56:49;99695.09;;;17.72;100.00
34034;BME280;63481;52.588;22.472;2023-07-13T00:57:23;99695.69;;;17.73;100.00
34034;BME280;63481;52.588;22.472;2023-07-13T00:57:55;99700.38;;;17.72;100.00
34034;BME280;63481;52.588;22.472;2023-07-13T00:58:28;99700.45;;;17.75;100.00
34034;BME280;63481;52.588;22.472;2023-07-13T00:59:02;99700.18;;;17.75;100.00
34034;BME280;63481;52.588;22.472;2023-07-13T00:59:35;99700.45;;;17.78;100.00
34034;BME280;63481;52.588;22.472;2023-07-13T01:00:09;99700.94;;;17.81;100.00
34034;BME280;63481;52.588;22.472;2023-07-13T01:00:42;99699.10;;;17.78;100.00
34034;BME280;63481;52.588;22.472;2023-07-13T01:01:14;99694.99;;;17.75;100.00
34034;BME280;63481;52.588;22.472;2023-07-13T01:01:47;99693.27;;;17.73;100.00
34034;BME280;63481;52.588;22.472;2023-07-13T01:02:19;99692.73;;;17.74;100.00
34034;BME280;63481;52.588;22.472;2023-07-13T01:02:53;99688.83;;;17.71;100.00
34034;BME280;63481;52.588;22.472;2023-07-13T01:03:25;99689.09;;;17.70;100.00
34034;BME280;63481;52.588;22.472;2023-07-13T01:03:57;99689.52;;;17.70;100.00
34034;BME280;63481;52.588;22.472;2023-07-13T01:04:29;99687.96;;;17.66;100.00
34034;BME280;63481;52.588;22.472;2023-07-13T01:05:01;99689.30;;;17.63;100.00
34034;BME280;63481;52.588;22.472;2023-07-13T01:05:34;99692.52;;;17.61;100.00
34034;BME280;63481;52.588;22.472;2023-07-13T01:06:07;99687.30;;;17.62;100.00
34034;BME280;63481;52.588;22.472;2023-07-13T01:06:40;99690.54;;;17.64;100.00
34034;BME280;63481;52.588;22.472;2023-07-13T01:07:15;99693.55;;;17.61;100.00
34034;BME280;63481;52.588;22.472;2023-07-13T01:07:50;99692.01;;;17.61;100.00
34034;BME280;63481;52.588;22.472;2023-07-13T01:08:23;99689.14;;;17.63;100.00
34034;BME280;63481;52.588;22.472;2023-07-13T01:08:56;99691.89;;;17.62;100.00
34034;BME280;63481;52.588;22.472;2023-07-13T01:09:30;99690.44;;;17.61;100.00
34034;BME280;63481;52.588;22.472;2023-07-13T01:10:03;99694.25;;;17.60;100.00
34034;BME280;63481;52.588;22.472;2023-07-13T01:10:35;99696.67;;;17.58;100.00
34034;BME280;63481;52.588;22.472;2023-07-13T01:11:10;99696.67;;;17.59;100.00
34034;BME280;63481;52.588;22.472;2023-07-13T01:11:42;99696.56;;;17.57;100.00
34034;BME280;63481;52.588;22.472;2023-07-13T01:12:14;99696.63;;;17.57;100.00
34034;BME280;63481;52.588;22.472;2023-07-13T01:12:46;99701.92;;;17.63;100.00
34034;BME280;63481;52.588;22.472;2023-07-13T01:13:18;99699.55;;;17.63;100.00
34034;BME280;63481;52.588;22.472;2023-07-13T01:13:51;99700.30;;;17.62;100.00
34034;BME280;63481;52.588;22.472;2023-07-13T01:14:23;99702.88;;;17.61;100.00
34034;BME280;63481;52.588;22.472;2023-07-13T01:15:01;99702.23;;;17.58;100.00
34034;BME280;63481;52.588;22.472;2023-07-13T01:15:40;99703.24;;;17.57;100.00
34034;BME280;63481;52.588;22.472;2023-07-13T01:16:27;99708.73;;;17.55;100.00
34034;BME280;63481;52.588;22.472;2023-07-13T01:17:01;99707.26;;;17.62;100.00
34034;BME280;63481;52.588;22.472;2023-07-13T01:17:35;99708.61;;;17.60;100.00
34034;BME280;63481;52.588;22.472;2023-07-13T01:18:10;99708.53;;;17.56;100.00
34034;BME280;63481;52.588;22.472;2023-07-13T01:18:42;99713.27;;;17.55;100.00
34034;BME280;63481;52.588;22.472;2023-07-13T01:19:33;99712.44;;;17.52;100.00
34034;BME280;63481;52.588;22.472;2023-07-13T01:20:10;99713.14;;;17.52;100.00
34034;BME280;63481;52.588;22.472;2023-07-13T01:20:52;99713.16;;;17.54;100.00
34034;BME280;63481;52.588;22.472;2023-07-13T01:21:25;99715.83;;;17.60;100.00
34034;BME280;63481;52.588;22.472;2023-07-13T01:21:57;99709.73;;;17.62;100.00
34034;BME280;63481;52.588;22.472;2023-07-13T01:22:29;99707.59;;;17.63;100.00
34034;BME280;63481;52.588;22.472;2023-07-13T01:23:05;99709.26;;;17.60;100.00
34034;BME280;63481;52.588;22.472;2023-07-13T01:23:37;99709.09;;;17.61;100.00
34034;BME280;63481;52.588;22.472;2023-07-13T01:24:09;99707.24;;;17.58;100.00
34034;BME280;63481;52.588;22.472;2023-07-13T01:24:44;99711.16;;;17.53;100.00
34034;BME280;63481;52.588;22.472;2023-07-13T01:25:16;99714.20;;;17.49;100.00
34034;BME280;63481;52.588;22.472;2023-07-13T01:25:49;99710.91;;;17.47;100.00
34034;BME280;63481;52.588;22.472;2023-07-13T01:26:20;99710.42;;;17.49;100.00
34034;BME280;63481;52.588;22.472;2023-07-13T01:26:52;99714.73;;;17.49;100.00
34034;BME280;63481;52.588;22.472;2023-07-13T01:27:25;99712.03;;;17.49;100.00
34034;BME280;63481;52.588;22.472;2023-07-13T01:27:57;99711.34;;;17.47;100.00
34034;BME280;63481;52.588;22.472;2023-07-13T01:28:29;99715.64;;;17.44;100.00
34034;BME280;63481;52.588;22.472;2023-07-13T01:29:02;99710.52;;;17.46;100.00
34034;BME280;63481;52.588;22.472;2023-07-13T01:29:36;99714.77;;;17.45;100.00
34034;BME280;63481;52.588;22.472;2023-07-13T01:30:13;99718.88;;;17.45;100.00
34034;BME280;63481;52.588;22.472;2023-07-13T01:30:46;99718.65;;;17.43;100.00
34034;BME280;63481;52.588;22.472;2023-07-13T01:31:18;99712.63;;;17.44;100.00
34034;BME280;63481;52.588;22.472;2023-07-13T01:31:50;99714.17;;;17.45;100.00
34034;BME280;63481;52.588;22.472;2023-07-13T01:32:24;99712.98;;;17.44;100.00
34034;BME280;63481;52.588;22.472;2023-07-13T01:32:58;99713.58;;;17.43;100.00
34034;BME280;63481;52.588;22.472;2023-07-13T01:33:32;99713.13;;;17.41;100.00
34034;BME280;63481;52.588;22.472;2023-07-13T01:34:03;99713.61;;;17.37;100.00
34034;BME280;63481;52.588;22.472;2023-07-13T01:34:36;99711.72;;;17.38;100.00
34034;BME280;63481;52.588;22.472;2023-07-13T01:35:08;99711.41;;;17.38;100.00
34034;BME280;63481;52.588;22.472;2023-07-13T01:35:42;99712.91;;;17.38;100.00
34034;BME280;63481;52.588;22.472;2023-07-13T01:36:14;99711.02;;;17.38;100.00
34034;BME280;63481;52.588;22.472;2023-07-13T01:36:46;99707.58;;;17.36;100.00
34034;BME280;63481;52.588;22.472;2023-07-13T01:37:18;99709.14;;;17.36;100.00
34034;BME280;63481;52.588;22.472;2023-07-13T01:37:49;99707.08;;;17.38;100.00
34034;BME280;63481;52.588;22.472;2023-07-13T01:38:22;99706.11;;;17.38;100.00
34034;BME280;63481;52.588;22.472;2023-07-13T01:38:54;99705.14;;;17.37;100.00
34034;BME280;63481;52.588;22.472;2023-07-13T01:39:26;99703.86;;;17.41;100.00
34034;BME280;63481;52.588;22.472;2023-07-13T01:39:59;99706.84;;;17.41;100.00
34034;BME280;63481;52.588;22.472;2023-07-13T01:40:31;99702.99;;;17.39;100.00
34034;BME280;63481;52.588;22.472;2023-07-13T01:41:04;99704.88;;;17.38;100.00
34034;BME280;63481;52.588;22.472;2023-07-13T01:41:36;99706.76;;;17.37;100.00
34034;BME280;63481;52.588;22.472;2023-07-13T01:42:08;99704.27;;;17.36;100.00
34034;BME280;63481;52.588;22.472;2023-07-13T01:42:58;99705.63;;;17.36;100.00
34034;BME280;63481;52.588;22.472;2023-07-13T01:43:30;99708.65;;;17.38;100.00
34034;BME280;63481;52.588;22.472;2023-07-13T01:44:02;99708.54;;;17.37;100.00
34034;BME280;63481;52.588;22.472;2023-07-13T01:44:34;99708.61;;;17.38;100.00
34034;BME280;63481;52.588;22.472;2023-07-13T01:45:06;99710.39;;;17.39;100.00
34034;BME280;63481;52.588;22.472;2023-07-13T01:45:38;99712.64;;;17.38;100.00
34034;BME280;63481;52.588;22.472;2023-07-13T01:46:10;99714.42;;;17.36;100.00
34034;BME280;63481;52.588;22.472;2023-07-13T01:46:42;99711.60;;;17.35;100.00
34034;BME280;63481;52.588;22.472;2023-07-13T01:47:14;99713.84;;;17.40;100.00
34034;BME280;63481;52.588;22.472;2023-07-13T01:47:45;99715.18;;;17.40;100.00
34034;BME280;63481;52.588;22.472;2023-07-13T01:48:18;99715.80;;;17.36;100.00
34034;BME280;63481;52.588;22.472;2023-07-13T01:48:51;99715.80;;;17.35;100.00
34034;BME280;63481;52.588;22.472;2023-07-13T01:49:23;99720.30;;;17.36;100.00
34034;BME280;63481;52.588;22.472;2023-07-13T01:49:55;99719.91;;;17.35;100.00
34034;BME280;63481;52.588;22.472;2023-07-13T01:50:27;99721.89;;;17.34;100.00
34034;BME280;63481;52.588;22.472;2023-07-13T01:50:59;99723.34;;;17.31;100.00
34034;BME280;63481;52.588;22.472;2023-07-13T01:51:31;99719.88;;;17.27;100.00
34034;BME280;63481;52.588;22.472;2023-07-13T01:52:03;99722.51;;;17.25;100.00
34034;BME280;63481;52.588;22.472;2023-07-13T01:52:36;99720.50;;;17.24;100.00
34034;BME280;63481;52.588;22.472;2023-07-13T01:53:08;99720.48;;;17.23;100.00
34034;BME280;63481;52.588;22.472;2023-07-13T01:53:40;99721.90;;;17.23;100.00
34034;BME280;63481;52.588;22.472;2023-07-13T01:54:12;99726.28;;;17.25;100.00
34034;BME280;63481;52.588;22.472;2023-07-13T01:54:44;99726.38;;;17.24;100.00
34034;BME280;63481;52.588;22.472;2023-07-13T01:55:16;99724.22;;;17.23;100.00
34034;BME280;63481;52.588;22.472;2023-07-13T01:55:48;99723.02;;;17.21;100.00
34034;BME280;63481;52.588;22.472;2023-07-13T01:56:20;99721.09;;;17.23;100.00
34034;BME280;63481;52.588;22.472;2023-07-13T01:56:52;99723.57;;;17.22;100.00
34034;BME280;63481;52.588;22.472;2023-07-13T01:57:24;99720.59;;;17.21;100.00
34034;BME280;63481;52.588;22.472;2023-07-13T01:57:56;99721.15;;;17.24;100.00
34034;BME280;63481;52.588;22.472;2023-07-13T01:58:28;99718.41;;;17.26;100.00
34034;BME280;63481;52.588;22.472;2023-07-13T01:59:00;99719.39;;;17.27;100.00
34034;BME280;63481;52.588;22.472;2023-07-13T01:59:32;99719.05;;;17.26;100.00
34034;BME280;63481;52.588;22.472;2023-07-13T02:00:06;99718.95;;;17.26;100.00
34034;BME280;63481;52.588;22.472;2023-07-13T02:00:49;99720.71;;;17.21;100.00
34034;BME280;63481;52.588;22.472;2023-07-13T02:01:21;99721.45;;;17.21;100.00
34034;BME280;63481;52.588;22.472;2023-07-13T02:01:53;99720.98;;;17.20;100.00
34034;BME280;63481;52.588;22.472;2023-07-13T02:02:26;99717.67;;;17.18;100.00
34034;BME280;63481;52.588;22.472;2023-07-13T02:02:58;99721.13;;;17.19;100.00
34034;BME280;63481;52.588;22.472;2023-07-13T02:03:30;99721.51;;;17.20;100.00
34034;BME280;63481;52.588;22.472;2023-07-13T02:04:04;99719.68;;;17.20;100.00
34034;BME280;63481;52.588;22.472;2023-07-13T02:04:38;99722.80;;;17.19;100.00
34034;BME280;63481;52.588;22.472;2023-07-13T02:05:11;99720.96;;;17.18;100.00
34034;BME280;63481;52.588;22.472;2023-07-13T02:05:44;99721.70;;;17.15;100.00
34034;BME280;63481;52.588;22.472;2023-07-13T02:06:16;99723.71;;;17.16;100.00
34034;BME280;63481;52.588;22.472;2023-07-13T02:06:48;99722.67;;;17.16;100.00
34034;BME280;63481;52.588;22.472;2023-07-13T02:07:21;99726.52;;;17.17;100.00
34034;BME280;63481;52.588;22.472;2023-07-13T02:07:53;99723.18;;;17.19;100.00
34034;BME280;63481;52.588;22.472;2023-07-13T02:08:25;99724.80;;;17.20;100.00
34034;BME280;63481;52.588;22.472;2023-07-13T02:08:58;99727.84;;;17.25;100.00
34034;BME280;63481;52.588;22.472;2023-07-13T02:09:30;99728.73;;;17.32;100.00
34034;BME280;63481;52.588;22.472;2023-07-13T02:10:03;99729.94;;;17.38;100.00
34034;BME280;63481;52.588;22.472;2023-07-13T02:10:36;99732.05;;;17.37;100.00
34034;BME280;63481;52.588;22.472;2023-07-13T02:11:08;99733.37;;;17.33;100.00
34034;BME280;63481;52.588;22.472;2023-07-13T02:11:40;99737.19;;;17.30;100.00
34034;BME280;63481;52.588;22.472;2023-07-13T02:12:12;99732.97;;;17.28;100.00
34034;BME280;63481;52.588;22.472;2023-07-13T02:12:44;99732.61;;;17.30;100.00
34034;BME280;63481;52.588;22.472;2023-07-13T02:13:17;99733.30;;;17.28;100.00
34034;BME280;63481;52.588;22.472;2023-07-13T02:13:48;99736.41;;;17.26;100.00
34034;BME280;63481;52.588;22.472;2023-07-13T02:14:20;99734.86;;;17.25;100.00
34034;BME280;63481;52.588;22.472;2023-07-13T02:14:52;99733.56;;;17.25;100.00
34034;BME280;63481;52.588;22.472;2023-07-13T02:15:24;99738.23;;;17.22;100.00
34034;BME280;63481;52.588;22.472;2023-07-13T02:15:56;99739.83;;;17.17;100.00
34034;BME280;63481;52.588;22.472;2023-07-13T02:16:29;99739.50;;;17.16;100.00
34034;BME280;63481;52.588;22.472;2023-07-13T02:17:01;99741.52;;;17.14;100.00
34034;BME280;63481;52.588;22.472;2023-07-13T02:17:34;99744.58;;;17.10;100.00
34034;BME280;63481;52.588;22.472;2023-07-13T02:18:06;99744.52;;;17.07;100.00
34034;BME280;63481;52.588;22.472;2023-07-13T02:18:38;99745.85;;;17.05;100.00
34034;BME280;63481;52.588;22.472;2023-07-13T02:19:10;99747.45;;;17.04;100.00
34034;BME280;63481;52.588;22.472;2023-07-13T02:19:42;99745.41;;;17.03;100.00
34034;BME280;63481;52.588;22.472;2023-07-13T02:20:14;99749.08;;;17.06;100.00
34034;BME280;63481;52.588;22.472;2023-07-13T02:20:46;99744.96;;;17.03;100.00
34034;BME280;63481;52.588;22.472;2023-07-13T02:21:18;99743.04;;;17.04;100.00
34034;BME280;63481;52.588;22.472;2023-07-13T02:21:50;99746.32;;;17.05;100.00
34034;BME280;63481;52.588;22.472;2023-07-13T02:22:22;99747.39;;;17.03;100.00
34034;BME280;63481;52.588;22.472;2023-07-13T02:22:54;99748.83;;;17.01;100.00
34034;BME280;63481;52.588;22.472;2023-07-13T02:23:26;99748.46;;;17.03;100.00
34034;BME280;63481;52.588;22.472;2023-07-13T02:23:58;99743.73;;;17.13;100.00
34034;BME280;63481;52.588;22.472;2023-07-13T02:24:31;99747.27;;;17.19;100.00
34034;BME280;63481;52.588;22.472;2023-07-13T02:25:04;99749.94;;;17.22;100.00
34034;BME280;63481;52.588;22.472;2023-07-13T02:25:36;99749.08;;;17.25;100.00
34034;BME280;63481;52.588;22.472;2023-07-13T02:26:08;99748.25;;;17.24;100.00
34034;BME280;63481;52.588;22.472;2023-07-13T02:26:40;99747.61;;;17.21;99.95
34034;BME280;63481;52.588;22.472;2023-07-13T02:27:12;99745.06;;;17.19;99.99
34034;BME280;63481;52.588;22.472;2023-07-13T02:27:43;99746.23;;;17.15;100.00
34034;BME280;63481;52.588;22.472;2023-07-13T02:28:15;99747.98;;;17.11;99.99
34034;BME280;63481;52.588;22.472;2023-07-13T02:28:47;99745.96;;;17.08;99.99
34034;BME280;63481;52.588;22.472;2023-07-13T02:29:19;99747.46;;;17.07;100.00
34034;BME280;63481;52.588;22.472;2023-07-13T02:29:51;99747.03;;;17.06;100.00
34034;BME280;63481;52.588;22.472;2023-07-13T02:30:24;99749.56;;;17.07;100.00
34034;BME280;63481;52.588;22.472;2023-07-13T02:31:10;99750.65;;;17.07;100.00
34034;BME280;63481;52.588;22.472;2023-07-13T02:31:43;99750.58;;;17.03;100.00
34034;BME280;63481;52.588;22.472;2023-07-13T02:32:15;99750.23;;;17.00;100.00
34034;BME280;63481;52.588;22.472;2023-07-13T02:32:46;99748.34;;;16.99;100.00
34034;BME280;63481;52.588;22.472;2023-07-13T02:33:18;99751.25;;;16.99;100.00
34034;BME280;63481;52.588;22.472;2023-07-13T02:33:50;99747.76;;;17.02;100.00
34034;BME280;63481;52.588;22.472;2023-07-13T02:34:23;99746.52;;;17.02;100.00
34034;BME280;63481;52.588;22.472;2023-07-13T02:34:55;99747.77;;;17.02;100.00
34034;BME280;63481;52.588;22.472;2023-07-13T02:35:27;99743.50;;;17.00;100.00
34034;BME280;63481;52.588;22.472;2023-07-13T02:35:59;99741.23;;;17.02;100.00
34034;BME280;63481;52.588;22.472;2023-07-13T02:36:32;99747.86;;;17.02;100.00
34034;BME280;63481;52.588;22.472;2023-07-13T02:37:04;99745.61;;;17.03;100.00
34034;BME280;63481;52.588;22.472;2023-07-13T02:37:36;99746.83;;;17.00;100.00
34034;BME280;63481;52.588;22.472;2023-07-13T02:38:08;99744.77;;;16.99;100.00
34034;BME280;63481;52.588;22.472;2023-07-13T02:38:40;99751.05;;;17.03;100.00
34034;BME280;63481;52.588;22.472;2023-07-13T02:39:13;99753.45;;;17.05;100.00
34034;BME280;63481;52.588;22.472;2023-07-13T02:39:45;99754.64;;;17.08;100.00
34034;BME280;63481;52.588;22.472;2023-07-13T02:40:17;99756.27;;;17.10;100.00
34034;BME280;63481;52.588;22.472;2023-07-13T02:40:49;99759.09;;;17.12;100.00
34034;BME280;63481;52.588;22.472;2023-07-13T02:41:21;99760.00;;;17.11;100.00
34034;BME280;63481;52.588;22.472;2023-07-13T02:41:54;99762.27;;;17.11;100.00
34034;BME280;63481;52.588;22.472;2023-07-13T02:42:26;99759.14;;;17.12;100.00
34034;BME280;63481;52.588;22.472;2023-07-13T02:42:59;99761.48;;;17.15;100.00
34034;BME280;63481;52.588;22.472;2023-07-13T02:43:31;99761.61;;;17.20;100.00
34034;BME280;63481;52.588;22.472;2023-07-13T02:44:03;99762.56;;;17.25;99.91
34034;BME280;63481;52.588;22.472;2023-07-13T02:44:36;99763.50;;;17.30;99.68
34034;BME280;63481;52.588;22.472;2023-07-13T02:45:08;99763.03;;;17.35;99.56
34034;BME280;63481;52.588;22.472;2023-07-13T02:45:45;99760.58;;;17.39;99.05
34034;BME280;63481;52.588;22.472;2023-07-13T02:46:17;99759.90;;;17.44;98.53
34034;BME280;63481;52.588;22.472;2023-07-13T02:46:51;99760.99;;;17.45;97.69
34034;BME280;63481;52.588;22.472;2023-07-13T02:47:23;99757.45;;;17.50;96.98
34034;BME280;63481;52.588;22.472;2023-07-13T02:47:54;99758.54;;;17.58;97.03
34034;BME280;63481;52.588;22.472;2023-07-13T02:48:26;99757.16;;;17.66;96.80
34034;BME280;63481;52.588;22.472;2023-07-13T02:48:58;99755.56;;;17.69;95.89
34034;BME280;63481;52.588;22.472;2023-07-13T02:49:30;99753.52;;;17.76;95.36
34034;BME280;63481;52.588;22.472;2023-07-13T02:50:03;99754.05;;;17.82;94.63
34034;BME280;63481;52.588;22.472;2023-07-13T02:50:36;99751.59;;;17.93;94.39
34034;BME280;63481;52.588;22.472;2023-07-13T02:51:08;99753.61;;;18.02;94.00
34034;BME280;63481;52.588;22.472;2023-07-13T02:51:40;99753.79;;;18.10;93.05
34034;BME280;63481;52.588;22.472;2023-07-13T02:52:12;99751.54;;;18.17;91.18
34034;BME280;63481;52.588;22.472;2023-07-13T02:52:44;99751.91;;;18.25;90.21
34034;BME280;63481;52.588;22.472;2023-07-13T02:53:16;99752.67;;;18.36;90.07